sensor_id;sensor_type;location;lat;lon;timestamp;pressure;altitude;pressure_sealevel;temperature;humidity
61128;BME280;47013;42.664;23.242;2024-01-15T00:00:37;93359.47;;;-0.93;77.16
61128;BME280;47013;42.664;23.242;2024-01-15T00:03:03;93360.53;;;-0.97;77.88
61128;BME280;47013;42.664;23.242;2024-01-15T00:05:28;93360.19;;;-0.96;77.94
61128;BME280;47013;42.664;23.242;2024-01-15T00:07:54;93359.06;;;-0.95;78.47
61128;BME280;47013;42.664;23.242;2024-01-15T00:10:19;93352.63;;;-0.94;77.12
61128;BME280;47013;42.664;23.242;2024-01-15T00:12:44;93356.50;;;-0.91;77.62
61128;BME280;47013;42.664;23.242;2024-01-15T00:15:10;93359.16;;;-0.91;77.91
61128;BME280;47013;42.664;23.242;2024-01-15T00:17:35;93344.63;;;-0.94;77.57
61128;BME280;47013;42.664;23.242;2024-01-15T00:20:00;93357.69;;;-0.88;77.69
61128;BME280;47013;42.664;23.242;2024-01-15T00:22:26;93349.97;;;-0.94;77.61
61128;BME280;47013;42.664;23.242;2024-01-15T00:24:52;93359.06;;;-0.95;77.56
61128;BME280;47013;42.664;23.242;2024-01-15T00:27:17;93358.63;;;-0.97;78.11
61128;BME280;47013;42.664;23.242;2024-01-15T00:29:43;93350.84;;;-1.05;77.94
61128;BME280;47013;42.664;23.242;2024-01-15T00:32:08;93361.66;;;-0.98;77.77
61128;BME280;47013;42.664;23.242;2024-01-15T00:34:34;93352.47;;;-1.01;77.68
61128;BME280;47013;42.664;23.242;2024-01-15T00:36:59;93366.19;;;-0.99;77.61
61128;BME280;47013;42.664;23.242;2024-01-15T00:39:24;93362.06;;;-0.96;77.56
61128;BME280;47013;42.664;23.242;2024-01-15T00:41:51;93362.34;;;-1.01;77.65
61128;BME280;47013;42.664;23.242;2024-01-15T00:44:16;93363.03;;;-1.04;77.77
61128;BME280;47013;42.664;23.242;2024-01-15T00:46:44;93365.34;;;-1.03;77.74
61128;BME280;47013;42.664;23.242;2024-01-15T00:49:10;93363.28;;;-1.09;77.44
61128;BME280;47013;42.664;23.242;2024-01-15T00:51:35;93362.94;;;-1.08;78.44
61128;BME280;47013;42.664;23.242;2024-01-15T00:54:00;93360.03;;;-1.19;78.30
61128;BME280;47013;42.664;23.242;2024-01-15T00:56:26;93360.13;;;-1.31;78.91
61128;BME280;47013;42.664;23.242;2024-01-15T00:58:51;93353.97;;;-1.35;79.23
61128;BME280;47013;42.664;23.242;2024-01-15T01:01:16;93352.44;;;-1.36;79.06
61128;BME280;47013;42.664;23.242;2024-01-15T01:03:42;93344.09;;;-1.34;79.30
61128;BME280;47013;42.664;23.242;2024-01-15T01:06:07;93348.81;;;-1.28;78.98
61128;BME280;47013;42.664;23.242;2024-01-15T01:08:32;93356.19;;;-1.21;79.38
61128;BME280;47013;42.664;23.242;2024-01-15T01:10:58;93350.94;;;-1.17;79.01
61128;BME280;47013;42.664;23.242;2024-01-15T01:13:23;93351.75;;;-1.17;78.37
61128;BME280;47013;42.664;23.242;2024-01-15T01:15:49;93353.19;;;-1.20;78.46
61128;BME280;47013;42.664;23.242;2024-01-15T01:18:14;93340.66;;;-1.19;77.92
61128;BME280;47013;42.664;23.242;2024-01-15T01:20:39;93355.06;;;-1.20;78.21
61128;BME280;47013;42.664;23.242;2024-01-15T01:23:05;93343.31;;;-1.19;77.90
61128;BME280;47013;42.664;23.242;2024-01-15T01:25:30;93331.91;;;-1.20;77.91
61128;BME280;47013;42.664;23.242;2024-01-15T01:27:55;93341.75;;;-1.20;77.93
61128;BME280;47013;42.664;23.242;2024-01-15T01:30:21;93326.50;;;-1.23;78.13
61128;BME280;47013;42.664;23.242;2024-01-15T01:32:46;93324.69;;;-1.19;77.70
61128;BME280;47013;42.664;23.242;2024-01-15T01:35:12;93327.00;;;-1.17;77.38
61128;BME280;47013;42.664;23.242;2024-01-15T01:37:37;93329.09;;;-1.27;78.38
61128;BME280;47013;42.664;23.242;2024-01-15T01:40:03;93325.66;;;-1.27;78.18
61128;BME280;47013;42.664;23.242;2024-01-15T01:42:29;93319.81;;;-1.33;78.13
61128;BME280;47013;42.664;23.242;2024-01-15T01:44:54;93316.22;;;-1.25;77.91
61128;BME280;47013;42.664;23.242;2024-01-15T01:47:19;93314.25;;;-1.28;78.79
61128;BME280;47013;42.664;23.242;2024-01-15T01:49:45;93313.66;;;-1.37;78.50
61128;BME280;47013;42.664;23.242;2024-01-15T01:52:11;93323.19;;;-1.36;79.08
61128;BME280;47013;42.664;23.242;2024-01-15T01:54:37;93316.31;;;-1.37;78.96
61128;BME280;47013;42.664;23.242;2024-01-15T01:57:05;93305.34;;;-1.35;78.71
61128;BME280;47013;42.664;23.242;2024-01-15T01:59:34;93314.25;;;-1.28;78.52
61128;BME280;47013;42.664;23.242;2024-01-15T02:02:00;93311.75;;;-1.21;78.59
61128;BME280;47013;42.664;23.242;2024-01-15T02:04:26;93300.75;;;-1.19;78.52
61128;BME280;47013;42.664;23.242;2024-01-15T02:06:52;93315.28;;;-1.16;78.13
61128;BME280;47013;42.664;23.242;2024-01-15T02:09:18;93309.50;;;-1.19;78.01
61128;BME280;47013;42.664;23.242;2024-01-15T02:11:46;93308.72;;;-1.19;78.09
61128;BME280;47013;42.664;23.242;2024-01-15T02:14:12;93291.56;;;-1.22;78.02
61128;BME280;47013;42.664;23.242;2024-01-15T02:16:37;93284.78;;;-1.19;77.78
61128;BME280;47013;42.664;23.242;2024-01-15T02:19:02;93281.06;;;-1.34;78.93
61128;BME280;47013;42.664;23.242;2024-01-15T02:21:28;93280.25;;;-1.54;80.05
61128;BME280;47013;42.664;23.242;2024-01-15T02:23:54;93242.50;;;-1.59;79.69
61128;BME280;47013;42.664;23.242;2024-01-15T02:26:20;93249.88;;;-1.53;79.88
61128;BME280;47013;42.664;23.242;2024-01-15T02:28:47;93247.47;;;-1.42;78.90
61128;BME280;47013;42.664;23.242;2024-01-15T02:31:12;93238.09;;;-1.36;78.83
61128;BME280;47013;42.664;23.242;2024-01-15T02:33:37;93244.00;;;-1.27;78.66
61128;BME280;47013;42.664;23.242;2024-01-15T02:36:03;93248.78;;;-1.32;79.00
61128;BME280;47013;42.664;23.242;2024-01-15T02:38:28;93252.31;;;-1.28;78.28
61128;BME280;47013;42.664;23.242;2024-01-15T02:40:54;93247.06;;;-1.25;78.07
61128;BME280;47013;42.664;23.242;2024-01-15T02:43:19;93250.31;;;-1.15;78.65
61128;BME280;47013;42.664;23.242;2024-01-15T02:45:45;93259.91;;;-1.11;78.48
61128;BME280;47013;42.664;23.242;2024-01-15T02:48:12;93238.25;;;-1.29;78.72
61128;BME280;47013;42.664;23.242;2024-01-15T02:50:37;93261.06;;;-1.28;79.08
61128;BME280;47013;42.664;23.242;2024-01-15T02:53:02;93258.59;;;-1.36;79.28
61128;BME280;47013;42.664;23.242;2024-01-15T02:55:28;93241.69;;;-1.44;79.43
61128;BME280;47013;42.664;23.242;2024-01-15T02:57:54;93249.94;;;-1.49;80.52
61128;BME280;47013;42.664;23.242;2024-01-15T03:00:20;93235.03;;;-1.54;80.98
61128;BME280;47013;42.664;23.242;2024-01-15T03:02:45;93244.34;;;-1.44;80.49
61128;BME280;47013;42.664;23.242;2024-01-15T03:05:11;93233.72;;;-1.44;81.61
61128;BME280;47013;42.664;23.242;2024-01-15T03:07:37;93248.31;;;-1.38;80.89
61128;BME280;47013;42.664;23.242;2024-01-15T03:10:02;93225.13;;;-1.37;80.25
61128;BME280;47013;42.664;23.242;2024-01-15T03:12:28;93228.91;;;-1.38;80.55
61128;BME280;47013;42.664;23.242;2024-01-15T03:14:53;93244.25;;;-1.32;80.42
61128;BME280;47013;42.664;23.242;2024-01-15T03:17:19;93219.63;;;-1.29;79.59
61128;BME280;47013;42.664;23.242;2024-01-15T03:19:44;93223.53;;;-1.23;80.78
61128;BME280;47013;42.664;23.242;2024-01-15T03:22:10;93220.00;;;-1.30;80.34
61128;BME280;47013;42.664;23.242;2024-01-15T03:24:35;93222.16;;;-1.16;80.69
61128;BME280;47013;42.664;23.242;2024-01-15T03:27:02;93218.25;;;-1.03;79.51
61128;BME280;47013;42.664;23.242;2024-01-15T03:29:27;93211.53;;;-0.97;80.19
61128;BME280;47013;42.664;23.242;2024-01-15T03:31:53;93208.66;;;-0.88;79.38
61128;BME280;47013;42.664;23.242;2024-01-15T03:34:18;93215.59;;;-0.84;78.99
61128;BME280;47013;42.664;23.242;2024-01-15T03:36:44;93216.88;;;-0.78;78.94
61128;BME280;47013;42.664;23.242;2024-01-15T03:39:09;93226.44;;;-0.73;79.20
61128;BME280;47013;42.664;23.242;2024-01-15T03:41:34;93221.13;;;-0.73;78.81
61128;BME280;47013;42.664;23.242;2024-01-15T03:44:00;93218.16;;;-0.68;79.05
61128;BME280;47013;42.664;23.242;2024-01-15T03:46:26;93222.81;;;-0.65;78.51
61128;BME280;47013;42.664;23.242;2024-01-15T03:48:52;93217.53;;;-0.62;78.63
61128;BME280;47013;42.664;23.242;2024-01-15T03:51:17;93216.81;;;-0.58;78.19
61128;BME280;47013;42.664;23.242;2024-01-15T03:53:43;93202.28;;;-0.65;78.00
61128;BME280;47013;42.664;23.242;2024-01-15T03:56:09;93205.78;;;-0.61;77.85
61128;BME280;47013;42.664;23.242;2024-01-15T03:58:34;93211.81;;;-0.64;77.32
61128;BME280;47013;42.664;23.242;2024-01-15T04:00:59;93215.91;;;-0.66;77.43
61128;BME280;47013;42.664;23.242;2024-01-15T04:03:25;93202.56;;;-0.70;77.44
61128;BME280;47013;42.664;23.242;2024-01-15T04:05:50;93200.38;;;-0.64;77.00
61128;BME280;47013;42.664;23.242;2024-01-15T04:08:15;93199.63;;;-0.65;78.14
61128;BME280;47013;42.664;23.242;2024-01-15T04:10:41;93188.53;;;-0.67;77.84
61128;BME280;47013;42.664;23.242;2024-01-15T04:13:06;93196.09;;;-0.69;77.20
61128;BME280;47013;42.664;23.242;2024-01-15T04:15:32;93193.31;;;-0.76;77.37
61128;BME280;47013;42.664;23.242;2024-01-15T04:17:57;93188.34;;;-0.77;77.22
61128;BME280;47013;42.664;23.242;2024-01-15T04:20:22;93200.53;;;-0.76;77.23
61128;BME280;47013;42.664;23.242;2024-01-15T04:22:48;93193.22;;;-0.79;76.98
61128;BME280;47013;42.664;23.242;2024-01-15T04:25:13;93193.94;;;-0.82;77.42
61128;BME280;47013;42.664;23.242;2024-01-15T04:27:39;93197.16;;;-0.93;77.60
61128;BME280;47013;42.664;23.242;2024-01-15T04:30:04;93209.63;;;-0.97;77.92
61128;BME280;47013;42.664;23.242;2024-01-15T04:32:30;93205.44;;;-0.98;78.14
61128;BME280;47013;42.664;23.242;2024-01-15T04:34:55;93202.72;;;-1.01;77.87
61128;BME280;47013;42.664;23.242;2024-01-15T04:37:21;93200.47;;;-0.99;78.67
61128;BME280;47013;42.664;23.242;2024-01-15T04:39:46;93188.84;;;-1.10;78.73
61128;BME280;47013;42.664;23.242;2024-01-15T04:42:11;93189.31;;;-1.24;80.10
61128;BME280;47013;42.664;23.242;2024-01-15T04:44:37;93189.69;;;-1.26;79.63
61128;BME280;47013;42.664;23.242;2024-01-15T04:47:02;93188.69;;;-1.37;80.27
61128;BME280;47013;42.664;23.242;2024-01-15T04:49:28;93192.53;;;-1.34;79.87
61128;BME280;47013;42.664;23.242;2024-01-15T04:51:54;93179.59;;;-1.36;79.48
61128;BME280;47013;42.664;23.242;2024-01-15T04:54:20;93174.91;;;-1.42;80.41
61128;BME280;47013;42.664;23.242;2024-01-15T04:56:45;93169.22;;;-1.41;80.40
61128;BME280;47013;42.664;23.242;2024-01-15T04:59:11;93165.44;;;-1.40;80.01
61128;BME280;47013;42.664;23.242;2024-01-15T05:01:36;93160.56;;;-1.38;80.78
61128;BME280;47013;42.664;23.242;2024-01-15T05:04:02;93162.16;;;-1.33;80.03
61128;BME280;47013;42.664;23.242;2024-01-15T05:06:27;93157.97;;;-1.34;80.01
61128;BME280;47013;42.664;23.242;2024-01-15T05:08:53;93158.44;;;-1.48;81.09
61128;BME280;47013;42.664;23.242;2024-01-15T05:11:18;93151.94;;;-1.51;81.71
61128;BME280;47013;42.664;23.242;2024-01-15T05:13:44;93160.69;;;-1.50;82.29
61128;BME280;47013;42.664;23.242;2024-01-15T05:16:09;93160.31;;;-1.49;82.39
61128;BME280;47013;42.664;23.242;2024-01-15T05:18:34;93163.75;;;-1.48;82.06
61128;BME280;47013;42.664;23.242;2024-01-15T05:21:02;93173.50;;;-1.36;92.35
61128;BME280;47013;42.664;23.242;2024-01-15T05:23:28;93166.06;;;-1.46;83.51
61128;BME280;47013;42.664;23.242;2024-01-15T05:25:53;93168.31;;;-1.49;83.26
61128;BME280;47013;42.664;23.242;2024-01-15T05:28:19;93163.47;;;-1.62;83.57
61128;BME280;47013;42.664;23.242;2024-01-15T05:30:44;93161.91;;;-1.63;83.52
61128;BME280;47013;42.664;23.242;2024-01-15T05:33:09;93160.97;;;-1.36;96.64
61128;BME280;47013;42.664;23.242;2024-01-15T05:35:35;93157.13;;;-1.73;86.86
61128;BME280;47013;42.664;23.242;2024-01-15T05:38:00;93149.69;;;-1.84;86.52
61128;BME280;47013;42.664;23.242;2024-01-15T05:40:26;93150.56;;;-1.80;85.61
61128;BME280;47013;42.664;23.242;2024-01-15T05:42:51;93155.25;;;-1.73;85.02
61128;BME280;47013;42.664;23.242;2024-01-15T05:45:16;93144.69;;;-1.69;84.64
61128;BME280;47013;42.664;23.242;2024-01-15T05:47:42;93139.47;;;-1.66;83.97
61128;BME280;47013;42.664;23.242;2024-01-15T05:50:09;93141.00;;;-1.65;83.61
61128;BME280;47013;42.664;23.242;2024-01-15T05:52:35;93130.22;;;-1.72;83.53
61128;BME280;47013;42.664;23.242;2024-01-15T05:55:00;93142.16;;;-1.82;83.97
61128;BME280;47013;42.664;23.242;2024-01-15T05:57:26;93149.97;;;-1.89;84.25
61128;BME280;47013;42.664;23.242;2024-01-15T05:59:51;93140.88;;;-1.88;84.17
61128;BME280;47013;42.664;23.242;2024-01-15T06:02:16;93140.34;;;-1.77;84.16
61128;BME280;47013;42.664;23.242;2024-01-15T06:04:42;93138.88;;;-1.75;84.51
61128;BME280;47013;42.664;23.242;2024-01-15T06:07:07;93124.00;;;-1.80;83.67
61128;BME280;47013;42.664;23.242;2024-01-15T06:09:33;93130.31;;;-1.84;84.71
61128;BME280;47013;42.664;23.242;2024-01-15T06:11:58;93135.91;;;-1.89;84.38
61128;BME280;47013;42.664;23.242;2024-01-15T06:14:24;93123.78;;;-2.22;85.17
61128;BME280;47013;42.664;23.242;2024-01-15T06:16:49;93141.06;;;-2.47;86.69
61128;BME280;47013;42.664;23.242;2024-01-15T06:19:15;93144.47;;;-2.31;86.95
61128;BME280;47013;42.664;23.242;2024-01-15T06:21:40;93143.59;;;-2.51;87.64
61128;BME280;47013;42.664;23.242;2024-01-15T06:24:05;93129.47;;;-2.39;87.85
61128;BME280;47013;42.664;23.242;2024-01-15T06:26:31;93125.69;;;-2.22;87.42
61128;BME280;47013;42.664;23.242;2024-01-15T06:28:56;93137.16;;;-2.02;86.59
61128;BME280;47013;42.664;23.242;2024-01-15T06:31:22;93133.97;;;-1.92;86.60
61128;BME280;47013;42.664;23.242;2024-01-15T06:33:47;93130.78;;;-1.82;85.73
61128;BME280;47013;42.664;23.242;2024-01-15T06:36:14;93129.50;;;-1.88;85.66
61128;BME280;47013;42.664;23.242;2024-01-15T06:38:42;93137.38;;;-1.92;86.22
61128;BME280;47013;42.664;23.242;2024-01-15T06:41:08;93147.38;;;-1.85;86.86
61128;BME280;47013;42.664;23.242;2024-01-15T06:43:33;93151.75;;;-1.77;86.39
61128;BME280;47013;42.664;23.242;2024-01-15T06:45:59;93144.56;;;-1.76;86.31
61128;BME280;47013;42.664;23.242;2024-01-15T06:48:24;93154.78;;;-1.59;85.90
61128;BME280;47013;42.664;23.242;2024-01-15T06:50:50;93149.00;;;-1.45;86.02
61128;BME280;47013;42.664;23.242;2024-01-15T06:53:15;93137.47;;;-1.34;84.99
61128;BME280;47013;42.664;23.242;2024-01-15T06:55:41;93138.03;;;-1.25;83.61
61128;BME280;47013;42.664;23.242;2024-01-15T06:58:06;93139.28;;;-1.19;84.74
61128;BME280;47013;42.664;23.242;2024-01-15T07:00:31;93158.09;;;-1.08;84.23
61128;BME280;47013;42.664;23.242;2024-01-15T07:02:57;93152.16;;;-1.01;84.09
61128;BME280;47013;42.664;23.242;2024-01-15T07:05:23;93160.00;;;-0.89;83.90
61128;BME280;47013;42.664;23.242;2024-01-15T07:07:49;93166.56;;;-0.83;83.47
61128;BME280;47013;42.664;23.242;2024-01-15T07:10:14;93165.09;;;-0.80;82.88
61128;BME280;47013;42.664;23.242;2024-01-15T07:12:43;93166.19;;;-0.81;82.52
61128;BME280;47013;42.664;23.242;2024-01-15T07:15:09;93160.00;;;-0.89;82.53
61128;BME280;47013;42.664;23.242;2024-01-15T07:17:34;93150.38;;;-0.74;82.73
61128;BME280;47013;42.664;23.242;2024-01-15T07:20:00;93159.75;;;-0.61;82.97
61128;BME280;47013;42.664;23.242;2024-01-15T07:22:26;93142.75;;;-0.53;81.32
61128;BME280;47013;42.664;23.242;2024-01-15T07:24:51;93148.22;;;-0.46;82.17
61128;BME280;47013;42.664;23.242;2024-01-15T07:27:17;93142.56;;;-0.41;81.30
61128;BME280;47013;42.664;23.242;2024-01-15T07:29:42;93125.56;;;-0.36;82.05
61128;BME280;47013;42.664;23.242;2024-01-15T07:32:08;93140.22;;;-0.23;81.55
61128;BME280;47013;42.664;23.242;2024-01-15T07:34:33;93137.53;;;0.00;87.92
61128;BME280;47013;42.664;23.242;2024-01-15T07:36:59;93134.91;;;0.04;81.94
61128;BME280;47013;42.664;23.242;2024-01-15T07:39:24;93140.25;;;0.04;80.75
61128;BME280;47013;42.664;23.242;2024-01-15T07:41:53;93143.38;;;0.09;80.70
61128;BME280;47013;42.664;23.242;2024-01-15T07:44:18;93143.53;;;0.20;80.72
61128;BME280;47013;42.664;23.242;2024-01-15T07:46:44;93144.97;;;0.14;80.43
61128;BME280;47013;42.664;23.242;2024-01-15T07:49:10;93152.59;;;-0.11;80.95
61128;BME280;47013;42.664;23.242;2024-01-15T07:51:36;93159.19;;;-0.02;81.53
61128;BME280;47013;42.664;23.242;2024-01-15T07:54:02;93144.84;;;0.07;81.72
61128;BME280;47013;42.664;23.242;2024-01-15T07:56:27;93130.56;;;0.18;80.93
61128;BME280;47013;42.664;23.242;2024-01-15T07:58:53;93118.59;;;0.35;100.00
61128;BME280;47013;42.664;23.242;2024-01-15T08:01:18;93125.38;;;0.29;86.86
61128;BME280;47013;42.664;23.242;2024-01-15T08:03:43;93113.31;;;0.39;82.84
61128;BME280;47013;42.664;23.242;2024-01-15T08:06:09;93124.53;;;0.51;80.55
61128;BME280;47013;42.664;23.242;2024-01-15T08:08:35;93138.38;;;0.61;78.94
61128;BME280;47013;42.664;23.242;2024-01-15T08:11:00;93141.94;;;0.72;76.60
61128;BME280;47013;42.664;23.242;2024-01-15T08:13:26;93135.88;;;0.75;77.40
61128;BME280;47013;42.664;23.242;2024-01-15T08:15:52;93148.47;;;0.78;76.43
61128;BME280;47013;42.664;23.242;2024-01-15T08:18:17;93142.81;;;0.79;76.33
61128;BME280;47013;42.664;23.242;2024-01-15T08:20:43;93139.41;;;0.82;77.22
61128;BME280;47013;42.664;23.242;2024-01-15T08:23:08;93147.50;;;0.59;76.47
61128;BME280;47013;42.664;23.242;2024-01-15T08:25:34;93149.03;;;0.61;74.26
61128;BME280;47013;42.664;23.242;2024-01-15T08:28:00;93148.75;;;0.66;75.73
61128;BME280;47013;42.664;23.242;2024-01-15T08:30:25;93154.31;;;0.87;76.25
61128;BME280;47013;42.664;23.242;2024-01-15T08:32:53;93142.28;;;1.00;76.30
61128;BME280;47013;42.664;23.242;2024-01-15T08:35:19;93144.53;;;0.98;76.47
61128;BME280;47013;42.664;23.242;2024-01-15T08:37:50;93145.31;;;0.99;76.53
61128;BME280;47013;42.664;23.242;2024-01-15T08:40:16;93138.53;;;1.05;76.55
61128;BME280;47013;42.664;23.242;2024-01-15T08:42:42;93137.81;;;1.08;76.16
61128;BME280;47013;42.664;23.242;2024-01-15T08:45:08;93132.97;;;1.21;75.39
61128;BME280;47013;42.664;23.242;2024-01-15T08:47:33;93126.41;;;1.14;74.35
61128;BME280;47013;42.664;23.242;2024-01-15T08:49:59;93129.59;;;1.27;73.79
61128;BME280;47013;42.664;23.242;2024-01-15T08:52:25;93122.06;;;1.36;74.03
61128;BME280;47013;42.664;23.242;2024-01-15T08:54:50;93126.75;;;1.46;73.76
61128;BME280;47013;42.664;23.242;2024-01-15T08:57:16;93118.47;;;1.18;73.41
61128;BME280;47013;42.664;23.242;2024-01-15T08:59:41;93109.38;;;1.26;74.71
61128;BME280;47013;42.664;23.242;2024-01-15T09:02:07;93108.94;;;1.21;74.39
61128;BME280;47013;42.664;23.242;2024-01-15T09:04:33;93101.00;;;1.28;73.79
61128;BME280;47013;42.664;23.242;2024-01-15T09:06:58;93085.53;;;1.44;73.80
61128;BME280;47013;42.664;23.242;2024-01-15T09:09:24;93070.81;;;1.64;72.74
61128;BME280;47013;42.664;23.242;2024-01-15T09:11:50;93055.22;;;1.70;71.67
61128;BME280;47013;42.664;23.242;2024-01-15T09:14:15;93060.69;;;1.91;71.24
61128;BME280;47013;42.664;23.242;2024-01-15T09:16:41;93059.59;;;1.96;69.95
61128;BME280;47013;42.664;23.242;2024-01-15T09:19:06;93055.78;;;2.00;69.25
61128;BME280;47013;42.664;23.242;2024-01-15T09:21:31;93061.91;;;2.01;69.26
61128;BME280;47013;42.664;23.242;2024-01-15T09:23:57;93042.44;;;2.04;69.02
61128;BME280;47013;42.664;23.242;2024-01-15T09:26:23;93049.38;;;2.12;69.82
61128;BME280;47013;42.664;23.242;2024-01-15T09:28:49;93035.25;;;2.15;68.97
61128;BME280;47013;42.664;23.242;2024-01-15T09:31:14;93041.03;;;2.24;69.26
61128;BME280;47013;42.664;23.242;2024-01-15T09:33:40;93023.84;;;2.29;69.94
61128;BME280;47013;42.664;23.242;2024-01-15T09:36:05;93027.28;;;2.26;69.96
61128;BME280;47013;42.664;23.242;2024-01-15T09:38:31;93028.50;;;2.35;70.21
61128;BME280;47013;42.664;23.242;2024-01-15T09:40:57;93010.53;;;2.40;69.60
61128;BME280;47013;42.664;23.242;2024-01-15T09:43:23;93010.97;;;2.49;68.65
61128;BME280;47013;42.664;23.242;2024-01-15T09:45:49;92989.56;;;2.52;68.74
61128;BME280;47013;42.664;23.242;2024-01-15T09:48:15;92998.75;;;2.58;68.43
61128;BME280;47013;42.664;23.242;2024-01-15T09:50:41;92979.25;;;2.58;66.94
61128;BME280;47013;42.664;23.242;2024-01-15T09:53:07;92980.34;;;2.39;66.74
61128;BME280;47013;42.664;23.242;2024-01-15T09:55:38;92974.91;;;2.21;67.90
61128;BME280;47013;42.664;23.242;2024-01-15T09:58:03;92970.81;;;2.45;68.89
61128;BME280;47013;42.664;23.242;2024-01-15T10:00:29;92972.75;;;2.59;69.40
61128;BME280;47013;42.664;23.242;2024-01-15T10:02:58;92982.72;;;2.73;68.91
61128;BME280;47013;42.664;23.242;2024-01-15T10:05:26;92991.13;;;2.64;64.91
61128;BME280;47013;42.664;23.242;2024-01-15T10:07:56;92982.00;;;2.83;66.28
61128;BME280;47013;42.664;23.242;2024-01-15T10:10:22;92969.41;;;2.94;63.73
61128;BME280;47013;42.664;23.242;2024-01-15T10:12:49;92961.00;;;3.03;62.07
61128;BME280;47013;42.664;23.242;2024-01-15T10:15:15;92953.34;;;3.08;61.13
61128;BME280;47013;42.664;23.242;2024-01-15T10:17:41;92951.81;;;3.61;61.21
61128;BME280;47013;42.664;23.242;2024-01-15T10:20:11;92950.69;;;3.54;60.40
61128;BME280;47013;42.664;23.242;2024-01-15T10:22:43;92946.09;;;3.48;61.38
61128;BME280;47013;42.664;23.242;2024-01-15T10:25:15;92935.31;;;3.73;61.94
61128;BME280;47013;42.664;23.242;2024-01-15T10:27:41;92930.78;;;3.41;60.33
61128;BME280;47013;42.664;23.242;2024-01-15T10:30:10;92925.06;;;3.14;61.62
61128;BME280;47013;42.664;23.242;2024-01-15T10:32:37;92931.19;;;3.40;62.55
61128;BME280;47013;42.664;23.242;2024-01-15T10:35:03;92930.00;;;3.66;61.24
61128;BME280;47013;42.664;23.242;2024-01-15T10:37:33;92921.97;;;4.64;100.00
61128;BME280;47013;42.664;23.242;2024-01-15T10:40:01;92935.41;;;5.19;67.86
61128;BME280;47013;42.664;23.242;2024-01-15T10:42:26;92931.94;;;5.71;60.14
61128;BME280;47013;42.664;23.242;2024-01-15T10:44:52;92920.16;;;5.99;57.71
61128;BME280;47013;42.664;23.242;2024-01-15T10:47:17;92918.09;;;6.13;55.18
61128;BME280;47013;42.664;23.242;2024-01-15T10:49:44;92901.19;;;6.09;53.86
61128;BME280;47013;42.664;23.242;2024-01-15T10:52:10;92905.44;;;5.69;55.38
61128;BME280;47013;42.664;23.242;2024-01-15T10:54:37;92909.75;;;5.59;54.43
61128;BME280;47013;42.664;23.242;2024-01-15T10:57:02;92896.56;;;5.72;55.01
61128;BME280;47013;42.664;23.242;2024-01-15T10:59:28;92911.28;;;5.60;53.31
61128;BME280;47013;42.664;23.242;2024-01-15T11:01:54;92891.06;;;5.83;55.59
61128;BME280;47013;42.664;23.242;2024-01-15T11:04:23;92881.47;;;5.82;53.65
61128;BME280;47013;42.664;23.242;2024-01-15T11:06:52;92884.41;;;5.98;54.79
61128;BME280;47013;42.664;23.242;2024-01-15T11:09:18;92885.50;;;6.04;52.92
61128;BME280;47013;42.664;23.242;2024-01-15T11:11:45;92890.56;;;6.33;53.56
61128;BME280;47013;42.664;23.242;2024-01-15T11:14:34;92888.03;;;6.49;53.07
61128;BME280;47013;42.664;23.242;2024-01-15T11:17:00;92878.66;;;6.61;54.10
61128;BME280;47013;42.664;23.242;2024-01-15T11:19:25;92881.75;;;6.29;51.51
61128;BME280;47013;42.664;23.242;2024-01-15T11:21:51;92875.81;;;6.10;52.49
61128;BME280;47013;42.664;23.242;2024-01-15T11:24:39;92875.63;;;6.28;53.13
61128;BME280;47013;42.664;23.242;2024-01-15T11:27:06;92880.59;;;6.30;53.62
61128;BME280;47013;42.664;23.242;2024-01-15T11:29:33;92870.13;;;6.35;53.18
61128;BME280;47013;42.664;23.242;2024-01-15T11:32:01;92874.56;;;6.49;53.22
61128;BME280;47013;42.664;23.242;2024-01-15T11:34:50;92881.44;;;6.54;53.27
61128;BME280;47013;42.664;23.242;2024-01-15T11:37:16;92869.72;;;6.37;51.85
61128;BME280;47013;42.664;23.242;2024-01-15T11:39:42;92869.38;;;6.35;52.38
61128;BME280;47013;42.664;23.242;2024-01-15T11:42:10;92872.81;;;6.35;53.22
61128;BME280;47013;42.664;23.242;2024-01-15T11:44:36;92875.91;;;6.34;53.02
61128;BME280;47013;42.664;23.242;2024-01-15T11:47:04;92878.75;;;6.23;52.30
61128;BME280;47013;42.664;23.242;2024-01-15T11:50:01;92855.69;;;5.88;53.21
61128;BME280;47013;42.664;23.242;2024-01-15T11:52:33;92852.25;;;5.84;54.46
61128;BME280;47013;42.664;23.242;2024-01-15T11:55:16;92845.81;;;5.78;54.40
61128;BME280;47013;42.664;23.242;2024-01-15T11:57:46;92845.56;;;5.65;54.43
61128;BME280;47013;42.664;23.242;2024-01-15T12:00:15;92849.00;;;5.66;55.13
61128;BME280;47013;42.664;23.242;2024-01-15T12:02:46;92847.47;;;5.65;54.70
61128;BME280;47013;42.664;23.242;2024-01-15T12:05:13;92831.00;;;5.62;55.15
61128;BME280;47013;42.664;23.242;2024-01-15T12:07:43;92819.13;;;5.56;55.18
61128;BME280;47013;42.664;23.242;2024-01-15T12:10:14;92832.63;;;5.53;55.84
61128;BME280;47013;42.664;23.242;2024-01-15T12:15:28;92825.91;;;5.30;56.38
61128;BME280;47013;42.664;23.242;2024-01-15T12:17:59;92824.44;;;5.26;56.95
61128;BME280;47013;42.664;23.242;2024-01-15T12:20:26;92824.78;;;5.28;56.84
61128;BME280;47013;42.664;23.242;2024-01-15T12:22:51;92825.91;;;5.30;57.15
61128;BME280;47013;42.664;23.242;2024-01-15T12:25:17;92820.88;;;5.36;56.75
61128;BME280;47013;42.664;23.242;2024-01-15T12:27:42;92805.91;;;5.35;57.39
61128;BME280;47013;42.664;23.242;2024-01-15T12:30:11;92814.75;;;5.36;57.25
61128;BME280;47013;42.664;23.242;2024-01-15T12:32:37;92800.16;;;5.37;56.41
61128;BME280;47013;42.664;23.242;2024-01-15T12:35:02;92810.56;;;5.31;57.38
61128;BME280;47013;42.664;23.242;2024-01-15T12:37:29;92799.44;;;5.29;58.26
61128;BME280;47013;42.664;23.242;2024-01-15T12:39:55;92807.94;;;5.24;57.72
61128;BME280;47013;42.664;23.242;2024-01-15T12:42:21;92800.75;;;5.14;58.87
61128;BME280;47013;42.664;23.242;2024-01-15T12:44:46;92785.38;;;5.14;57.28
61128;BME280;47013;42.664;23.242;2024-01-15T12:47:12;92794.16;;;5.18;57.60
61128;BME280;47013;42.664;23.242;2024-01-15T12:49:38;92794.53;;;5.20;57.83
61128;BME280;47013;42.664;23.242;2024-01-15T12:52:08;92788.38;;;5.20;58.10